Time,TemperatureF,DewpointF,PressureIn,WindDirection,WindDirectionDegrees,WindSpeedMPH,WindSpeedGustMPH,Humidity,HourlyPrecipIn,Conditions,Clouds,dailyrainin,SoftwareType,DateUTC
2013-03-24 00:00:00,71.4,67.3,29.91,SE,135,1.3,1.3,87,0.00,,---,0.00,VWS V14.01,2013-03-24 04:00:00,
2013-03-24 00:02:00,71.4,67.3,29.91,ESE,112,0.9,1.1,87,0.00,,---,0.00,VWS V14.01,2013-03-24 04:02:00,
2013-03-24 00:07:00,71.4,67.3,29.91,ESE,112,0.0,1.3,87,0.00,,---,0.00,VWS V14.01,2013-03-24 04:07:00,
2013-03-24 00:13:00,71.4,67.3,29.91,SE,135,0.0,2.7,87,0.00,,---,0.00,VWS V14.01,2013-03-24 04:13:00,
2013-03-24 00:18:00,71.4,67.3,29.91,ESE,112,0.0,0.0,87,0.00,,---,0.00,VWS V14.01,2013-03-24 04:18:00,
2013-03-24 00:23:00,71.2,67.2,29.91,ESE,112,0.0,2.5,87,0.00,,---,0.00,VWS V14.01,2013-03-24 04:23:00,
2013-03-24 00:29:00,71.2,67.2,29.91,SSE,158,1.1,3.8,87,0.00,,---,0.00,VWS V14.01,2013-03-24 04:29:00,
2013-03-24 00:34:00,71.2,67.2,29.91,SSE,158,1.3,1.3,87,0.00,,---,0.00,VWS V14.01,2013-03-24 04:34:00,
2013-03-24 00:39:00,71.2,67.2,29.91,SE,135,0.0,2.7,87,0.00,,---,0.00,VWS V14.01,2013-03-24 04:39:00,
2013-03-24 00:44:00,71.2,67.5,29.91,ESE,112,0.0,0.0,88,0.00,,---,0.00,VWS V14.01,2013-03-24 04:44:00,
2013-03-24 00:49:00,71.1,67.3,29.91,ESE,112,0.0,1.6,88,0.00,,---,0.00,VWS V14.01,2013-03-24 04:49:00,
2013-03-24 00:54:00,71.1,67.3,29.91,ESE,112,2.0,2.0,88,0.00,,---,0.00,VWS V14.01,2013-03-24 04:54:00,
2013-03-24 00:59:00,71.1,67.3,29.91,ESE,112,2.0,2.0,88,0.00,,---,0.00,VWS V14.01,2013-03-24 04:59:00,
2013-03-24 01:05:00,70.9,67.2,29.91,SE,135,0.0,0.0,88,0.00,,---,0.00,VWS V14.01,2013-03-24 05:05:00,
2013-03-24 01:10:00,70.9,67.2,29.91,ESE,112,0.0,0.9,88,0.00,,---,0.00,VWS V14.01,2013-03-24 05:10:00,
2013-03-24 01:16:00,70.9,67.2,29.91,SE,135,0.0,0.9,88,0.00,,---,0.00,VWS V14.01,2013-03-24 05:16:00,
2013-03-24 01:21:00,70.7,66.7,29.91,ESE,112,1.6,1.6,87,0.00,,---,0.00,VWS V14.01,2013-03-24 05:21:00,
2013-03-24 01:28:00,70.7,67.0,29.91,SE,135,1.6,1.6,88,0.00,,---,0.00,VWS V14.01,2013-03-24 05:28:00,
2013-03-24 01:33:00,70.7,67.0,29.88,SE,135,0.0,2.0,88,0.00,,---,0.00,VWS V14.01,2013-03-24 05:33:00,
2013-03-24 01:38:00,70.7,67.0,29.88,SSE,158,1.1,2.2,88,0.00,,---,0.00,VWS V14.01,2013-03-24 05:38:00,
2013-03-24 01:43:00,70.7,67.0,29.88,SSE,158,1.1,1.6,88,0.00,,---,0.00,VWS V14.01,2013-03-24 05:43:00,
2013-03-24 01:48:00,70.5,66.8,29.88,ESE,112,1.6,1.6,88,0.00,,---,0.00,VWS V14.01,2013-03-24 05:48:00,
2013-03-24 01:53:00,70.5,66.8,29.88,SSE,158,1.6,2.2,88,0.00,,---,0.00,VWS V14.01,2013-03-24 05:53:00,
2013-03-24 01:59:00,70.5,66.8,29.88,East,90,2.2,2.2,88,0.00,,---,0.00,VWS V14.01,2013-03-24 05:59:00,
2013-03-24 02:04:00,70.5,67.1,29.88,ESE,112,0.9,1.6,89,0.00,,---,0.00,VWS V14.01,2013-03-24 06:04:00,
2013-03-24 02:10:00,70.5,67.1,29.88,SSE,158,0.9,0.9,89,0.00,,---,0.00,VWS V14.01,2013-03-24 06:10:00,
2013-03-24 02:15:00,70.5,67.1,29.88,South,180,1.1,3.4,89,0.00,,---,0.00,VWS V14.01,2013-03-24 06:15:00,
2013-03-24 02:20:00,70.5,67.1,29.88,South,180,2.7,2.7,89,0.00,,---,0.00,VWS V14.01,2013-03-24 06:20:00,
2013-03-24 02:26:00,70.5,67.1,29.88,South,180,1.3,1.3,89,0.00,,---,0.00,VWS V14.01,2013-03-24 06:26:00,
2013-03-24 02:32:00,70.5,67.1,29.85,SE,135,1.1,2.7,89,0.00,,---,0.00,VWS V14.01,2013-03-24 06:32:00,
2013-03-24 02:38:00,70.5,67.1,29.85,SE,135,2.5,2.5,89,0.00,,---,0.00,VWS V14.01,2013-03-24 06:38:00,
2013-03-24 02:44:00,70.5,67.1,29.85,ESE,112,1.3,1.3,89,0.00,,---,0.00,VWS V14.01,2013-03-24 06:44:00,
2013-03-24 02:49:00,70.3,66.9,29.85,SSE,158,1.6,1.6,89,0.00,,---,0.00,VWS V14.01,2013-03-24 06:49:00,
2013-03-24 02:54:00,70.3,66.9,29.85,SSW,202,1.1,1.1,89,0.00,,---,0.00,VWS V14.01,2013-03-24 06:54:00,
2013-03-24 02:59:00,70.3,66.9,29.85,SE,135,3.4,3.4,89,0.00,,---,0.00,VWS V14.01,2013-03-24 06:59:00,
2013-03-24 03:04:00,70.3,66.9,29.85,SSE,158,1.6,3.4,89,0.00,,---,0.00,VWS V14.01,2013-03-24 07:04:00,
2013-03-24 03:09:00,70.3,66.9,29.85,SE,135,0.0,1.3,89,0.00,,---,0.00,VWS V14.01,2013-03-24 07:09:00,
2013-03-24 03:15:00,70.3,66.9,29.85,SSE,158,1.3,1.3,89,0.00,,---,0.00,VWS V14.01,2013-03-24 07:15:00,
2013-03-24 03:20:00,70.3,66.6,29.85,ESE,112,2.5,2.7,88,0.00,,---,0.00,VWS V14.01,2013-03-24 07:20:00,
2013-03-24 03:25:00,70.3,66.9,29.85,SE,135,4.0,4.0,89,0.00,,---,0.00,VWS V14.01,2013-03-24 07:25:00,
2013-03-24 03:30:00,70.3,66.9,29.85,SSE,158,1.1,1.3,89,0.00,,---,0.00,VWS V14.01,2013-03-24 07:30:00,
2013-03-24 03:35:00,70.3,66.9,29.85,SSE,158,3.1,6.0,89,0.00,,---,0.00,VWS V14.01,2013-03-24 07:35:00,
2013-03-24 03:40:00,70.5,67.1,29.85,SSW,202,3.6,3.6,89,0.00,,---,0.00,VWS V14.01,2013-03-24 07:40:00,
2013-03-24 03:45:00,70.7,67.3,29.82,South,180,2.0,4.0,89,0.00,,---,0.00,VWS V14.01,2013-03-24 07:45:00,
2013-03-24 03:50:00,70.9,67.5,29.82,ESE,112,6.0,6.0,89,0.00,,---,0.00,VWS V14.01,2013-03-24 07:50:00,
2013-03-24 03:55:00,71.1,67.7,29.82,South,180,3.8,7.6,89,0.00,,---,0.00,VWS V14.01,2013-03-24 07:55:00,
2013-03-24 04:00:00,71.4,68.3,29.82,SSW,202,6.3,7.8,90,0.00,,---,0.00,VWS V14.01,2013-03-24 08:00:00,
2013-03-24 04:06:00,71.8,68.4,29.82,WSW,248,2.7,13.0,89,0.00,,---,0.00,VWS V14.01,2013-03-24 08:06:00,
2013-03-24 04:12:00,72.1,68.7,29.82,ESE,112,2.5,11.9,89,0.00,,---,0.00,VWS V14.01,2013-03-24 08:12:00,
2013-03-24 04:17:00,72.3,68.6,29.79,South,180,7.6,7.6,88,0.00,,---,0.00,VWS V14.01,2013-03-24 08:17:00,
2013-03-24 04:22:00,72.5,68.8,29.79,SSW,202,6.5,6.5,88,0.00,,---,0.00,VWS V14.01,2013-03-24 08:22:00,
2013-03-24 04:27:00,72.5,68.4,29.79,SSW,202,6.3,12.1,87,0.00,,---,0.00,VWS V14.01,2013-03-24 08:27:00,
2013-03-24 04:32:00,72.7,68.6,29.79,SSW,202,7.4,15.2,87,0.00,,---,0.00,VWS V14.01,2013-03-24 08:32:00,
2013-03-24 04:37:00,72.7,68.6,29.79,SW,225,5.8,9.6,87,0.00,,---,0.00,VWS V14.01,2013-03-24 08:37:00,
2013-03-24 04:42:00,72.9,68.4,29.79,SE,135,6.5,8.7,86,0.00,,---,0.00,VWS V14.01,2013-03-24 08:42:00,
2013-03-24 04:47:00,72.9,68.4,29.79,SSW,202,8.1,8.1,86,0.00,,---,0.00,VWS V14.01,2013-03-24 08:47:00,
2013-03-24 04:52:00,72.9,68.4,29.79,SW,225,5.6,6.3,86,0.00,,---,0.00,VWS V14.01,2013-03-24 08:52:00,
2013-03-24 04:57:00,72.9,68.4,29.79,SSE,158,8.7,8.7,86,0.00,,---,0.00,VWS V14.01,2013-03-24 08:57:00,
2013-03-24 05:03:00,72.9,68.4,29.79,SSW,202,3.1,6.5,86,0.00,,---,0.00,VWS V14.01,2013-03-24 09:03:00,
2013-03-24 05:08:00,72.9,68.1,29.79,SSE,158,15.4,15.4,85,0.00,,---,0.00,VWS V14.01,2013-03-24 09:08:00,
2013-03-24 05:14:00,72.9,68.4,29.79,SSW,202,4.9,15.4,86,0.00,,---,0.00,VWS V14.01,2013-03-24 09:14:00,
2013-03-24 05:19:00,72.7,67.9,29.79,SE,135,11.0,11.0,85,0.00,,---,0.00,VWS V14.01,2013-03-24 09:19:00,
2013-03-24 05:24:00,72.7,67.9,29.79,SSW,202,5.8,11.0,85,0.00,,---,0.00,VWS V14.01,2013-03-24 09:24:00,
2013-03-24 05:30:00,72.7,68.3,29.79,SW,225,6.0,6.0,86,0.00,,---,0.00,VWS V14.01,2013-03-24 09:30:00,
2013-03-24 05:35:00,72.7,68.3,29.79,South,180,10.3,13.4,86,0.00,,---,0.00,VWS V14.01,2013-03-24 09:35:00,
2013-03-24 05:40:00,72.7,68.6,29.79,SSW,202,3.1,8.7,87,0.00,,---,0.00,VWS V14.01,2013-03-24 09:40:00,
2013-03-24 05:46:00,72.5,68.4,29.79,SSW,202,7.8,7.8,87,0.00,,---,0.00,VWS V14.01,2013-03-24 09:46:00,
2013-03-24 05:51:00,72.5,68.1,29.79,SSW,202,6.5,6.9,86,0.00,,---,0.00,VWS V14.01,2013-03-24 09:51:00,
2013-03-24 05:57:00,72.3,67.9,29.79,SE,135,5.6,6.3,86,0.00,,---,0.00,VWS V14.01,2013-03-24 09:57:00,
2013-03-24 06:02:00,72.3,68.2,29.79,SSW,202,4.9,13.4,87,0.00,,---,0.00,VWS V14.01,2013-03-24 10:02:00,
2013-03-24 06:07:00,72.1,68.1,29.79,South,180,11.2,11.2,87,0.00,,---,0.00,VWS V14.01,2013-03-24 10:07:00,
2013-03-24 06:12:00,72.1,68.1,29.79,SSE,158,8.7,9.4,87,0.00,,---,0.00,VWS V14.01,2013-03-24 10:12:00,
2013-03-24 06:17:00,72.0,68.2,29.79,SSW,202,8.5,9.8,88,0.00,,---,0.00,VWS V14.01,2013-03-24 10:17:00,
2013-03-24 06:22:00,72.0,68.2,29.79,SSE,158,6.3,12.5,88,0.00,,---,0.00,VWS V14.01,2013-03-24 10:22:00,
2013-03-24 06:28:00,72.0,68.2,29.79,ESE,112,4.3,6.0,88,0.00,,---,0.00,VWS V14.01,2013-03-24 10:28:00,
2013-03-24 06:34:00,72.0,68.2,29.79,SSW,202,4.3,4.3,88,0.00,,---,0.00,VWS V14.01,2013-03-24 10:34:00,
2013-03-24 06:39:00,71.8,68.4,29.79,SSW,202,4.3,8.7,89,0.00,,---,0.00,VWS V14.01,2013-03-24 10:39:00,
2013-03-24 06:45:00,71.8,68.4,29.79,SW,225,7.6,10.3,89,0.00,,---,0.00,VWS V14.01,2013-03-24 10:45:00,
2013-03-24 06:51:00,71.8,68.4,29.79,SSE,158,8.5,10.7,89,0.00,,---,0.00,VWS V14.01,2013-03-24 10:51:00,
2013-03-24 06:56:00,71.8,68.7,29.79,SSW,202,8.5,9.6,90,0.00,,---,0.00,VWS V14.01,2013-03-24 10:56:00,
2013-03-24 07:02:00,71.8,68.7,29.79,SSW,202,8.7,9.8,90,0.00,,---,0.00,VWS V14.01,2013-03-24 11:02:00,
2013-03-24 07:07:00,71.8,69.0,29.79,SSW,202,3.1,4.9,91,0.00,,---,0.00,VWS V14.01,2013-03-24 11:07:00,
2013-03-24 07:12:00,71.8,69.0,29.79,SSW,202,8.1,8.1,91,0.00,,---,0.00,VWS V14.01,2013-03-24 11:12:00,
2013-03-24 07:17:00,71.8,69.0,29.79,SSE,158,6.3,9.6,91,0.00,,---,0.00,VWS V14.01,2013-03-24 11:17:00,
2013-03-24 07:22:00,71.6,68.8,29.79,SSE,158,10.1,10.5,91,0.00,,---,0.00,VWS V14.01,2013-03-24 11:22:00,
2013-03-24 07:27:00,71.6,68.8,29.79,SSW,202,7.6,7.6,91,0.00,,---,0.00,VWS V14.01,2013-03-24 11:27:00,
2013-03-24 07:32:00,71.6,68.8,29.79,SSW,202,6.5,6.5,91,0.00,,---,0.00,VWS V14.01,2013-03-24 11:32:00,
2013-03-24 07:37:00,71.4,69.0,29.79,SSW,202,12.8,12.8,92,0.00,,---,0.00,VWS V14.01,2013-03-24 11:37:00,
2013-03-24 07:42:00,71.4,69.3,29.79,South,180,7.4,7.8,93,0.00,,---,0.00,VWS V14.01,2013-03-24 11:42:00,
2013-03-24 07:47:00,71.4,69.3,29.79,SSW,202,3.4,8.1,93,0.00,,---,0.00,VWS V14.01,2013-03-24 11:47:00,
2013-03-24 07:52:00,71.4,69.3,29.79,SSW,202,12.5,12.5,93,0.00,,---,0.00,VWS V14.01,2013-03-24 11:52:00,
2013-03-24 07:57:00,71.4,69.3,29.79,South,180,5.8,6.5,93,0.00,,---,0.00,VWS V14.01,2013-03-24 11:57:00,
2013-03-24 08:02:00,71.2,69.1,29.79,SSE,158,1.6,8.1,93,0.00,,---,0.00,VWS V14.01,2013-03-24 12:02:00,
2013-03-24 08:08:00,71.2,69.4,29.79,South,180,3.4,12.1,94,0.00,,---,0.00,VWS V14.01,2013-03-24 12:08:00,
2013-03-24 08:13:00,71.2,69.4,29.79,SSW,202,6.5,6.5,94,0.00,,---,0.00,VWS V14.01,2013-03-24 12:13:00,
2013-03-24 08:18:00,71.2,69.4,29.79,NW,315,5.6,6.5,94,0.00,,---,0.00,VWS V14.01,2013-03-24 12:18:00,
2013-03-24 08:23:00,71.2,69.4,29.79,SSW,202,6.5,11.0,94,0.00,,---,0.00,VWS V14.01,2013-03-24 12:23:00,
2013-03-24 08:28:00,71.1,69.2,29.79,SSW,202,9.6,10.7,94,0.00,,---,0.00,VWS V14.01,2013-03-24 12:28:00,
2013-03-24 08:33:00,71.1,69.2,29.79,SSW,202,5.8,8.7,94,0.00,,---,0.00,VWS V14.01,2013-03-24 12:33:00,
2013-03-24 08:39:00,71.1,69.2,29.79,SSW,202,5.4,8.1,94,0.00,,---,0.00,VWS V14.01,2013-03-24 12:39:00,
2013-03-24 08:44:00,71.1,69.6,29.79,South,180,8.7,10.7,95,0.00,,---,0.00,VWS V14.01,2013-03-24 12:44:00,
2013-03-24 08:50:00,71.1,69.6,29.82,SSW,202,3.8,5.8,95,0.00,,---,0.00,VWS V14.01,2013-03-24 12:50:00,
2013-03-24 08:55:00,71.1,69.6,29.82,South,180,7.6,7.6,95,0.00,,---,0.00,VWS V14.01,2013-03-24 12:55:00,
2013-03-24 09:00:00,71.1,69.6,29.82,SSW,202,3.1,6.3,95,0.00,,---,0.00,VWS V14.01,2013-03-24 13:00:00,
2013-03-24 09:05:00,71.1,69.6,29.82,ESE,112,3.8,3.8,95,0.00,,---,0.00,VWS V14.01,2013-03-24 13:05:00,
2013-03-24 09:11:00,71.1,69.6,29.82,SSW,202,8.1,8.1,95,0.00,,---,0.00,VWS V14.01,2013-03-24 13:11:00,
2013-03-24 09:16:00,71.1,69.9,29.82,SSE,158,4.0,5.6,96,0.00,,---,0.00,VWS V14.01,2013-03-24 13:16:00,
2013-03-24 09:21:00,71.1,69.9,29.82,SE,135,3.4,4.9,96,0.00,,---,0.00,VWS V14.01,2013-03-24 13:21:00,
2013-03-24 09:27:00,71.2,70.1,29.82,SW,225,4.3,5.4,96,0.00,,---,0.00,VWS V14.01,2013-03-24 13:27:00,
2013-03-24 09:32:00,71.2,70.1,29.82,ESE,112,7.8,8.7,96,0.00,,---,0.00,VWS V14.01,2013-03-24 13:32:00,
2013-03-24 09:37:00,71.4,70.2,29.82,SW,225,7.2,7.2,96,0.00,,---,0.00,VWS V14.01,2013-03-24 13:37:00,
2013-03-24 09:42:00,71.4,70.2,29.82,SSW,202,2.5,2.7,96,0.00,,---,0.00,VWS V14.01,2013-03-24 13:42:00,
2013-03-24 09:47:00,71.4,70.2,29.82,SW,225,2.7,4.0,96,0.00,,---,0.00,VWS V14.01,2013-03-24 13:47:00,
2013-03-24 09:52:00,71.4,70.2,29.82,SSW,202,3.6,5.4,96,0.00,,---,0.00,VWS V14.01,2013-03-24 13:52:00,
2013-03-24 09:57:00,71.4,69.9,29.82,South,180,7.2,7.2,95,0.00,,---,0.00,VWS V14.01,2013-03-24 13:57:00,
2013-03-24 10:04:00,71.6,70.1,29.85,SSW,202,10.5,10.5,95,0.00,,---,0.00,VWS V14.01,2013-03-24 14:04:00,
2013-03-24 10:09:00,71.6,70.1,29.85,SSW,202,6.9,6.9,95,0.00,,---,0.00,VWS V14.01,2013-03-24 14:09:00,
2013-03-24 10:14:00,71.6,69.8,29.85,South,180,6.0,6.0,94,0.00,,---,0.00,VWS V14.01,2013-03-24 14:14:00,
2013-03-24 10:20:00,71.6,69.8,29.85,SSW,202,4.3,4.3,94,0.00,,---,0.00,VWS V14.01,2013-03-24 14:20:00,
2013-03-24 10:26:00,71.8,70.0,29.85,SW,225,3.1,3.1,94,0.00,,---,0.00,VWS V14.01,2013-03-24 14:26:00,
2013-03-24 10:31:00,71.8,70.0,29.85,SSE,158,4.0,7.8,94,0.00,,---,0.00,VWS V14.01,2013-03-24 14:31:00,
2013-03-24 10:36:00,72.0,70.1,29.85,WSW,248,5.6,5.6,94,0.00,,---,0.00,VWS V14.01,2013-03-24 14:36:00,
2013-03-24 10:42:00,72.1,70.3,29.85,SSE,158,7.2,7.2,94,0.00,,---,0.00,VWS V14.01,2013-03-24 14:42:00,
2013-03-24 10:47:00,72.3,70.5,29.85,SSW,202,2.9,2.9,94,0.00,,---,0.00,VWS V14.01,2013-03-24 14:47:00,
2013-03-24 10:52:00,72.5,70.7,29.85,SSW,202,7.6,7.6,94,0.00,,---,0.00,VWS V14.01,2013-03-24 14:52:00,
2013-03-24 10:57:00,72.7,70.9,29.85,South,180,1.6,3.6,94,0.00,,---,0.00,VWS V14.01,2013-03-24 14:57:00,
2013-03-24 11:03:00,73.0,70.9,29.85,SSE,158,3.4,6.0,93,0.00,,---,0.00,VWS V14.01,2013-03-24 15:03:00,
2013-03-24 11:08:00,73.2,70.8,29.85,SSW,202,8.1,8.1,92,0.00,,---,0.00,VWS V14.01,2013-03-24 15:08:00,
2013-03-24 11:14:00,73.6,70.8,29.85,SW,225,4.0,8.1,91,0.00,,---,0.00,VWS V14.01,2013-03-24 15:14:00,
2013-03-24 11:19:00,73.9,71.2,29.88,SE,135,3.6,6.5,91,0.00,,---,0.00,VWS V14.01,2013-03-24 15:19:00,
2013-03-24 11:25:00,74.1,71.0,29.88,SSW,202,7.8,7.8,90,0.00,,---,0.00,VWS V14.01,2013-03-24 15:25:00,
2013-03-24 11:30:00,74.5,71.0,29.85,SSW,202,4.3,5.6,89,0.00,,---,0.00,VWS V14.01,2013-03-24 15:30:00,
2013-03-24 11:35:00,75.0,71.6,29.85,SSW,202,5.6,5.6,89,0.00,,---,0.00,VWS V14.01,2013-03-24 15:35:00,
2013-03-24 11:40:00,75.7,71.9,29.85,South,180,9.8,10.3,88,0.00,,---,0.00,VWS V14.01,2013-03-24 15:40:00,
2013-03-24 11:45:00,75.9,71.1,29.85,South,180,5.8,7.2,85,0.00,,---,0.00,VWS V14.01,2013-03-24 15:45:00,
2013-03-24 11:51:00,76.5,70.9,29.85,SSW,202,6.7,6.7,83,0.00,,---,0.00,VWS V14.01,2013-03-24 15:51:00,
2013-03-24 11:56:00,76.6,70.7,29.85,SW,225,3.1,8.1,82,0.00,,---,0.00,VWS V14.01,2013-03-24 15:56:00,
2013-03-24 12:01:00,77.2,70.5,29.85,East,90,9.8,14.8,80,0.00,,---,0.00,VWS V14.01,2013-03-24 16:01:00,
2013-03-24 12:07:00,77.4,70.3,29.85,WSW,248,0.9,3.6,79,0.00,,---,0.00,VWS V14.01,2013-03-24 16:07:00,
2013-03-24 12:13:00,77.5,70.5,29.85,West,270,4.3,6.0,79,0.00,,---,0.00,VWS V14.01,2013-03-24 16:13:00,
2013-03-24 12:18:00,78.3,70.8,29.85,SW,225,8.5,8.5,78,0.00,,---,0.00,VWS V14.01,2013-03-24 16:18:00,
2013-03-24 12:23:00,78.4,70.6,29.85,SSW,202,6.0,10.7,77,0.00,,---,0.00,VWS V14.01,2013-03-24 16:23:00,
2013-03-24 12:28:00,78.4,70.2,29.85,SSW,202,6.0,6.0,76,0.00,,---,0.00,VWS V14.01,2013-03-24 16:28:00,
2013-03-24 12:34:00,78.3,69.7,29.85,SSW,202,6.0,6.0,75,0.00,,---,0.00,VWS V14.01,2013-03-24 16:34:00,
2013-03-24 12:39:00,78.1,69.1,29.85,SSE,158,7.4,14.3,74,0.00,,---,0.00,VWS V14.01,2013-03-24 16:39:00,
2013-03-24 12:45:00,78.1,69.1,29.85,SSE,158,7.6,7.6,74,0.00,,---,0.00,VWS V14.01,2013-03-24 16:45:00,
2013-03-24 12:50:00,77.9,68.6,29.85,SSE,158,7.6,7.6,73,0.00,,---,0.00,VWS V14.01,2013-03-24 16:50:00,
2013-03-24 12:56:00,77.7,68.4,29.85,SSE,158,7.6,7.6,73,0.00,,---,0.00,VWS V14.01,2013-03-24 16:56:00,
2013-03-24 13:01:00,77.7,68.4,29.82,SSW,202,14.5,14.5,73,0.00,,---,0.00,VWS V14.01,2013-03-24 17:01:00,
2013-03-24 13:06:00,77.7,68.4,29.82,SSW,202,6.3,10.5,73,0.00,,---,0.00,VWS V14.01,2013-03-24 17:06:00,
2013-03-24 13:11:00,77.7,68.4,29.82,SSW,202,4.0,4.0,73,0.00,,---,0.00,VWS V14.01,2013-03-24 17:11:00,
2013-03-24 13:16:00,78.1,69.1,29.79,SSW,202,4.0,4.0,74,0.00,,---,0.00,VWS V14.01,2013-03-24 17:16:00,
2013-03-24 13:21:00,78.4,69.5,29.79,SSW,202,4.0,4.0,74,0.00,,---,0.00,VWS V14.01,2013-03-24 17:21:00,
2013-03-24 13:27:00,78.4,68.7,29.79,SSW,202,5.6,5.6,72,0.00,,---,0.00,VWS V14.01,2013-03-24 17:27:00,
2013-03-24 13:32:00,78.3,68.5,29.82,SW,225,3.1,6.7,72,0.00,,---,0.00,VWS V14.01,2013-03-24 17:32:00,
2013-03-24 13:38:00,78.3,68.9,29.82,SSW,202,12.5,12.5,73,0.00,,---,0.00,VWS V14.01,2013-03-24 17:38:00,
2013-03-24 13:43:00,79.0,69.2,29.82,SSW,202,11.2,11.2,72,0.00,,---,0.00,VWS V14.01,2013-03-24 17:43:00,
2013-03-24 13:48:00,79.5,69.3,29.82,SSW,202,4.7,10.5,71,0.00,,---,0.00,VWS V14.01,2013-03-24 17:48:00,
2013-03-24 13:53:00,79.7,69.1,29.82,SE,135,6.3,6.3,70,0.00,,---,0.00,VWS V14.01,2013-03-24 17:53:00,
2013-03-24 13:58:00,79.5,68.5,29.82,SSW,202,7.4,10.3,69,0.00,,---,0.00,VWS V14.01,2013-03-24 17:58:00,
2013-03-24 14:03:00,79.3,67.9,29.82,South,180,6.3,8.7,68,0.00,,---,0.00,VWS V14.01,2013-03-24 18:03:00,
2013-03-24 14:08:00,79.2,67.7,29.82,SSE,158,4.3,7.8,68,0.00,,---,0.00,VWS V14.01,2013-03-24 18:08:00,
2013-03-24 14:13:00,79.0,67.5,29.82,SW,225,1.6,9.8,68,0.00,,---,0.00,VWS V14.01,2013-03-24 18:13:00,
2013-03-24 14:18:00,79.0,67.5,29.82,South,180,7.8,7.8,68,0.00,,---,0.00,VWS V14.01,2013-03-24 18:18:00,
2013-03-24 14:23:00,79.2,68.1,29.82,WSW,248,3.6,4.9,69,0.00,,---,0.00,VWS V14.01,2013-03-24 18:23:00,
2013-03-24 14:29:00,79.3,68.3,29.82,WSW,248,4.7,5.4,69,0.00,,---,0.00,VWS V14.01,2013-03-24 18:29:00,
2013-03-24 14:34:00,79.3,68.3,29.82,SSW,202,2.2,6.0,69,0.00,,---,0.00,VWS V14.01,2013-03-24 18:34:00,
2013-03-24 14:40:00,78.6,67.6,29.82,SW,225,6.3,7.8,69,0.00,,---,0.00,VWS V14.01,2013-03-24 18:40:00,
2013-03-24 14:45:00,78.4,67.4,29.79,SSE,158,4.9,7.8,69,0.00,,---,0.00,VWS V14.01,2013-03-24 18:45:00,
2013-03-24 14:50:00,78.1,67.1,29.79,SSW,202,13.0,13.0,69,0.00,,---,0.00,VWS V14.01,2013-03-24 18:50:00,
2013-03-24 14:55:00,78.1,67.5,29.79,ENE,68,4.3,4.9,70,0.00,,---,0.00,VWS V14.01,2013-03-24 18:55:00,
2013-03-24 15:00:00,78.1,67.5,29.82,West,270,2.0,7.4,70,0.00,,---,0.00,VWS V14.01,2013-03-24 19:00:00,
2013-03-24 15:05:00,78.1,67.5,29.82,SSW,202,7.4,7.4,70,0.00,,---,0.00,VWS V14.01,2013-03-24 19:05:00,
2013-03-24 15:10:00,77.9,67.8,29.82,SW,225,9.4,9.4,71,0.00,,---,0.00,VWS V14.01,2013-03-24 19:10:00,
2013-03-24 15:17:00,77.7,67.6,29.79,SSW,202,5.4,6.3,71,0.00,,---,0.00,VWS V14.01,2013-03-24 19:17:00,
2013-03-24 15:22:00,77.5,67.4,29.79,SW,225,8.5,8.5,71,0.00,,---,0.00,VWS V14.01,2013-03-24 19:22:00,
2013-03-24 15:27:00,77.4,67.2,29.79,SW,225,4.0,7.6,71,0.00,,---,0.00,VWS V14.01,2013-03-24 19:27:00,
2013-03-24 15:32:00,77.2,67.5,29.79,WSW,248,7.4,7.8,72,0.00,,---,0.00,VWS V14.01,2013-03-24 19:32:00,
2013-03-24 15:37:00,76.8,67.5,29.79,SSW,202,2.9,6.3,73,0.00,,---,0.00,VWS V14.01,2013-03-24 19:37:00,
2013-03-24 15:42:00,76.5,67.2,29.79,South,180,6.0,7.8,73,0.00,,---,0.00,VWS V14.01,2013-03-24 19:42:00,
2013-03-24 15:47:00,76.3,67.4,29.79,SSW,202,2.7,5.6,74,0.00,,---,0.00,VWS V14.01,2013-03-24 19:47:00,
2013-03-24 15:52:00,75.9,67.4,29.79,SSW,202,5.4,5.4,75,0.00,,---,0.00,VWS V14.01,2013-03-24 19:52:00,
2013-03-24 15:57:00,75.4,67.3,29.79,SSW,202,5.4,5.4,76,0.00,,---,0.00,VWS V14.01,2013-03-24 19:57:00,
2013-03-24 16:02:00,75.0,67.7,29.79,SSW,202,5.4,5.4,78,0.00,,---,0.00,VWS V14.01,2013-03-24 20:02:00,
2013-03-24 16:07:00,74.7,67.7,29.79,SSW,202,5.4,5.4,79,0.00,,---,0.00,VWS V14.01,2013-03-24 20:07:00,
2013-03-24 16:12:00,74.3,67.4,29.79,East,90,2.5,2.9,79,0.04,,---,0.04,VWS V14.01,2013-03-24 20:12:00,
2013-03-24 16:17:00,74.1,67.6,29.76,West,270,1.6,2.9,80,0.12,,---,0.12,VWS V14.01,2013-03-24 20:17:00,
2013-03-24 16:22:00,73.8,67.2,29.76,West,270,1.6,1.6,80,0.16,,---,0.16,VWS V14.01,2013-03-24 20:22:00,
2013-03-24 16:27:00,73.4,66.9,29.76,West,270,1.6,1.6,80,0.21,,---,0.21,VWS V14.01,2013-03-24 20:27:00,
2013-03-24 16:32:00,73.2,67.4,29.76,West,270,1.6,1.6,82,0.33,,---,0.33,VWS V14.01,2013-03-24 20:32:00,
2013-03-24 16:37:00,73.2,68.1,29.76,West,270,1.6,1.6,84,0.33,,---,0.33,VWS V14.01,2013-03-24 20:37:00,
2013-03-24 16:43:00,73.2,68.1,29.76,West,270,1.6,1.6,84,0.33,,---,0.33,VWS V14.01,2013-03-24 20:43:00,
2013-03-24 16:49:00,73.2,68.1,29.79,West,270,1.6,1.6,84,0.33,,---,0.33,VWS V14.01,2013-03-24 20:49:00,
2013-03-24 16:54:00,73.0,68.3,29.79,West,270,1.6,1.6,85,0.33,,---,0.33,VWS V14.01,2013-03-24 20:54:00,
2013-03-24 16:59:00,73.0,68.3,29.79,West,270,1.6,1.6,85,0.33,,---,0.33,VWS V14.01,2013-03-24 20:59:00,
2013-03-24 17:04:00,73.0,68.3,29.79,West,270,1.6,1.6,85,0.33,,---,0.33,VWS V14.01,2013-03-24 21:04:00,
2013-03-24 17:09:00,72.9,68.1,29.79,West,270,1.6,1.6,85,0.33,,---,0.33,VWS V14.01,2013-03-24 21:09:00,
2013-03-24 17:14:00,72.9,68.1,29.79,West,270,1.6,1.6,85,0.25,,---,0.33,VWS V14.01,2013-03-24 21:14:00,
2013-03-24 17:19:00,72.7,67.9,29.79,West,270,1.6,1.6,85,0.21,,---,0.33,VWS V14.01,2013-03-24 21:19:00,
2013-03-24 17:24:00,72.5,67.7,29.79,SSW,202,3.4,3.4,85,0.17,,---,0.33,VWS V14.01,2013-03-24 21:24:00,
2013-03-24 17:30:00,72.7,67.9,29.79,SSW,202,3.8,4.7,85,0.04,,---,0.33,VWS V14.01,2013-03-24 21:30:00,
2013-03-24 17:35:00,72.7,68.3,29.79,SSW,202,2.7,3.4,86,0.00,,---,0.33,VWS V14.01,2013-03-24 21:35:00,
2013-03-24 17:40:00,72.7,68.3,29.79,SE,135,4.9,4.9,86,0.00,,---,0.33,VWS V14.01,2013-03-24 21:40:00,
2013-03-24 17:45:00,72.9,68.8,29.79,SSW,202,1.6,3.1,87,0.00,,---,0.33,VWS V14.01,2013-03-24 21:45:00,
2013-03-24 17:50:00,72.9,68.8,29.79,WSW,248,4.0,4.0,87,0.00,,---,0.33,VWS V14.01,2013-03-24 21:50:00,
2013-03-24 17:55:00,73.0,69.3,29.79,SSE,158,2.7,2.7,88,0.00,,---,0.33,VWS V14.01,2013-03-24 21:55:00,
2013-03-24 18:00:00,73.2,69.8,29.76,SW,225,2.7,5.8,89,0.00,,---,0.33,VWS V14.01,2013-03-24 22:00:00,
2013-03-24 18:05:00,73.6,70.1,29.76,SSW,202,3.4,5.6,89,0.00,,---,0.33,VWS V14.01,2013-03-24 22:05:00,
2013-03-24 18:11:00,73.6,69.8,29.76,SW,225,2.9,2.9,88,0.00,,---,0.33,VWS V14.01,2013-03-24 22:11:00,
2013-03-24 18:17:00,73.9,70.2,29.79,SSW,202,7.6,7.6,88,0.00,,---,0.33,VWS V14.01,2013-03-24 22:17:00,
2013-03-24 18:22:00,73.9,70.2,29.79,South,180,2.7,3.6,88,0.00,,---,0.33,VWS V14.01,2013-03-24 22:22:00,
2013-03-24 18:28:00,73.9,70.2,29.79,NNE,22,1.1,1.1,88,0.00,,---,0.33,VWS V14.01,2013-03-24 22:28:00,
2013-03-24 18:33:00,73.8,69.7,29.79,SSW,202,3.1,4.0,87,0.00,,---,0.33,VWS V14.01,2013-03-24 22:33:00,
2013-03-24 18:38:00,73.8,69.7,29.79,SSW,202,4.0,5.8,87,0.00,,---,0.33,VWS V14.01,2013-03-24 22:38:00,
2013-03-24 18:43:00,73.6,69.5,29.79,SW,225,2.0,2.7,87,0.00,,---,0.33,VWS V14.01,2013-03-24 22:43:00,
2013-03-24 18:48:00,73.6,69.1,29.79,SW,225,2.0,2.0,86,0.00,,---,0.33,VWS V14.01,2013-03-24 22:48:00,
2013-03-24 18:53:00,73.6,69.1,29.79,SW,225,2.0,2.0,86,0.00,,---,0.33,VWS V14.01,2013-03-24 22:53:00,
2013-03-24 18:58:00,73.4,69.0,29.79,SW,225,2.0,2.0,86,0.00,,---,0.33,VWS V14.01,2013-03-24 22:58:00,
2013-03-24 19:04:00,73.4,69.0,29.79,South,180,4.9,4.9,86,0.00,,---,0.33,VWS V14.01,2013-03-24 23:04:00,
2013-03-24 19:09:00,73.4,69.3,29.79,SSW,202,2.2,4.3,87,0.00,,---,0.33,VWS V14.01,2013-03-24 23:09:00,
2013-03-24 19:14:00,73.6,69.5,29.79,SSW,202,2.5,4.9,87,0.00,,---,0.33,VWS V14.01,2013-03-24 23:14:00,
2013-03-24 19:20:00,73.4,69.3,29.79,North,0,5.6,5.6,87,0.00,,---,0.33,VWS V14.01,2013-03-24 23:20:00,
2013-03-24 19:25:00,73.4,69.3,29.79,WSW,248,5.4,5.4,87,0.00,,---,0.33,VWS V14.01,2013-03-24 23:25:00,
2013-03-24 19:30:00,73.4,69.3,29.79,WSW,248,4.3,6.5,87,0.00,,---,0.33,VWS V14.01,2013-03-24 23:30:00,
2013-03-24 19:35:00,73.2,69.5,29.79,WSW,248,2.0,3.4,88,0.00,,---,0.33,VWS V14.01,2013-03-24 23:35:00,
2013-03-24 19:40:00,73.2,69.5,29.79,SSW,202,2.0,4.7,88,0.00,,---,0.33,VWS V14.01,2013-03-24 23:40:00,
2013-03-24 19:45:00,73.2,69.5,29.79,SE,135,3.8,3.8,88,0.00,,---,0.33,VWS V14.01,2013-03-24 23:45:00,
2013-03-24 19:52:00,73.0,68.9,29.79,SW,225,1.1,6.7,87,0.00,,---,0.33,VWS V14.01,2013-03-24 23:52:00,
2013-03-24 19:57:00,72.9,68.8,29.79,SE,135,3.6,3.6,87,0.00,,---,0.33,VWS V14.01,2013-03-24 23:57:00,
2013-03-24 20:02:00,72.7,68.6,29.79,NW,315,1.3,4.0,87,0.00,,---,0.33,VWS V14.01,2013-03-25 00:02:00,
2013-03-24 20:07:00,72.7,68.9,29.79,SW,225,2.5,3.8,88,0.00,,---,0.33,VWS V14.01,2013-03-25 00:07:00,
2013-03-24 20:12:00,72.7,68.9,29.79,SSW,202,3.8,9.4,88,0.00,,---,0.33,VWS V14.01,2013-03-25 00:12:00,
2013-03-24 20:17:00,72.5,68.8,29.79,SW,225,2.0,3.8,88,0.00,,---,0.33,VWS V14.01,2013-03-25 00:17:00,
2013-03-24 20:23:00,72.5,68.8,29.79,SE,135,3.6,3.6,88,0.00,,---,0.33,VWS V14.01,2013-03-25 00:23:00,
2013-03-24 20:28:00,72.5,68.8,29.79,NNW,338,2.9,2.9,88,0.00,,---,0.33,VWS V14.01,2013-03-25 00:28:00,
2013-03-24 20:33:00,72.5,68.8,29.82,NNW,338,0.0,1.3,88,0.00,,---,0.33,VWS V14.01,2013-03-25 00:33:00,
2013-03-24 20:38:00,72.5,68.8,29.82,ESE,112,0.0,1.1,88,0.00,,---,0.33,VWS V14.01,2013-03-25 00:38:00,
2013-03-24 20:43:00,72.5,68.8,29.82,WNW,292,1.3,1.3,88,0.00,,---,0.33,VWS V14.01,2013-03-25 00:43:00,
2013-03-24 20:48:00,72.5,68.8,29.82,WSW,248,3.4,3.4,88,0.00,,---,0.33,VWS V14.01,2013-03-25 00:48:00,
2013-03-24 20:53:00,72.3,68.6,29.82,WNW,292,2.0,3.8,88,0.00,,---,0.33,VWS V14.01,2013-03-25 00:53:00,
2013-03-24 20:58:00,72.3,68.6,29.82,WNW,292,3.1,3.1,88,0.00,,---,0.33,VWS V14.01,2013-03-25 00:58:00,
2013-03-24 21:04:00,72.3,68.6,29.82,WSW,248,3.1,3.1,88,0.00,,---,0.33,VWS V14.01,2013-03-25 01:04:00,
2013-03-24 21:09:00,72.3,68.6,29.82,NW,315,0.0,4.9,88,0.00,,---,0.33,VWS V14.01,2013-03-25 01:09:00,
2013-03-24 21:14:00,72.3,68.6,29.82,NNW,338,1.6,4.9,88,0.00,,---,0.33,VWS V14.01,2013-03-25 01:14:00,
2013-03-24 21:19:00,72.3,68.9,29.82,NNW,338,3.4,3.4,89,0.00,,---,0.33,VWS V14.01,2013-03-25 01:19:00,
2013-03-24 21:25:00,72.3,68.9,29.82,WSW,248,2.2,2.9,89,0.00,,---,0.33,VWS V14.01,2013-03-25 01:25:00,
2013-03-24 21:30:00,72.5,69.1,29.82,WNW,292,2.2,6.3,89,0.00,,---,0.33,VWS V14.01,2013-03-25 01:30:00,
2013-03-24 21:35:00,72.5,69.1,29.82,North,0,2.0,2.2,89,0.00,,---,0.33,VWS V14.01,2013-03-25 01:35:00,
2013-03-24 21:40:00,72.5,69.1,29.82,West,270,3.6,3.6,89,0.00,,---,0.33,VWS V14.01,2013-03-25 01:40:00,
2013-03-24 21:45:00,72.5,69.1,29.82,WNW,292,2.5,2.9,89,0.00,,---,0.33,VWS V14.01,2013-03-25 01:45:00,
2013-03-24 21:50:00,72.5,69.1,29.82,West,270,2.0,3.8,89,0.00,,---,0.33,VWS V14.01,2013-03-25 01:50:00,
2013-03-24 21:55:00,72.5,69.1,29.82,WNW,292,5.4,5.4,89,0.00,,---,0.33,VWS V14.01,2013-03-25 01:55:00,
2013-03-24 22:00:00,72.3,68.9,29.85,SSW,202,3.1,3.1,89,0.00,,---,0.33,VWS V14.01,2013-03-25 02:00:00,
2013-03-24 22:05:00,72.3,68.9,29.85,WNW,292,6.3,6.3,89,0.00,,---,0.33,VWS V14.01,2013-03-25 02:05:00,
2013-03-24 22:10:00,72.3,68.9,29.85,East,90,3.8,5.8,89,0.00,,---,0.33,VWS V14.01,2013-03-25 02:10:00,
2013-03-24 22:15:00,72.3,68.9,29.85,SW,225,1.3,2.9,89,0.00,,---,0.33,VWS V14.01,2013-03-25 02:15:00,
2013-03-24 22:20:00,72.3,68.9,29.85,SW,225,0.0,0.0,89,0.00,,---,0.33,VWS V14.01,2013-03-25 02:20:00,
2013-03-24 22:25:00,72.3,68.9,29.85,WNW,292,3.8,3.8,89,0.00,,---,0.33,VWS V14.01,2013-03-25 02:25:00,
2013-03-24 22:31:00,72.1,68.7,29.85,SW,225,1.6,3.4,89,0.00,,---,0.33,VWS V14.01,2013-03-25 02:31:00,
2013-03-24 22:36:00,72.1,68.7,29.85,NNW,338,3.8,3.8,89,0.00,,---,0.33,VWS V14.01,2013-03-25 02:36:00,
2013-03-24 22:42:00,72.1,68.7,29.85,WSW,248,3.1,5.6,89,0.00,,---,0.33,VWS V14.01,2013-03-25 02:42:00,
2013-03-24 22:47:00,72.1,68.7,29.85,WSW,248,2.0,2.0,89,0.00,,---,0.33,VWS V14.01,2013-03-25 02:47:00,
2013-03-24 22:52:00,72.0,68.6,29.85,NNW,338,2.9,2.9,89,0.00,,---,0.33,VWS V14.01,2013-03-25 02:52:00,
2013-03-24 22:57:00,72.0,68.6,29.85,SSW,202,2.9,4.9,89,0.00,,---,0.33,VWS V14.01,2013-03-25 02:57:00,
2013-03-24 23:02:00,72.0,68.6,29.85,NW,315,2.9,2.9,89,0.00,,---,0.33,VWS V14.01,2013-03-25 03:02:00,
2013-03-24 23:07:00,72.0,68.6,29.85,NW,315,3.6,3.6,89,0.00,,---,0.33,VWS V14.01,2013-03-25 03:07:00,
2013-03-24 23:13:00,72.0,68.6,29.85,ESE,112,3.6,4.0,89,0.00,,---,0.33,VWS V14.01,2013-03-25 03:13:00,
2013-03-24 23:18:00,71.8,68.4,29.85,NNE,22,3.8,3.8,89,0.00,,---,0.33,VWS V14.01,2013-03-25 03:18:00,
2013-03-24 23:24:00,71.8,68.4,29.85,ENE,68,4.7,4.7,89,0.00,,---,0.33,VWS V14.01,2013-03-25 03:24:00,
2013-03-24 23:29:00,71.8,68.4,29.85,NNW,338,2.9,2.9,89,0.00,,---,0.33,VWS V14.01,2013-03-25 03:29:00,
2013-03-24 23:34:00,71.6,68.2,29.88,SE,135,2.9,2.9,89,0.00,,---,0.33,VWS V14.01,2013-03-25 03:34:00,
2013-03-24 23:39:00,71.6,68.2,29.88,NW,315,2.7,2.7,89,0.00,,---,0.33,VWS V14.01,2013-03-25 03:39:00,
2013-03-24 23:44:00,71.6,68.2,29.88,West,270,2.0,2.0,89,0.00,,---,0.33,VWS V14.01,2013-03-25 03:44:00,
2013-03-24 23:49:00,71.6,68.2,29.85,NNE,22,1.6,1.6,89,0.00,,---,0.33,VWS V14.01,2013-03-25 03:49:00,
2013-03-24 23:54:00,71.4,68.0,29.85,WNW,292,5.4,5.8,89,0.00,,---,0.33,VWS V14.01,2013-03-25 03:54:00,
2013-03-24 23:59:00,71.4,68.0,29.85,WNW,292,2.5,2.9,89,0.00,,---,0.00,VWS V14.01,2013-03-25 03:59:00,